sensor_id;sensor_type;location;lat;lon;timestamp;P1;durP1;ratioP1;P2;durP2;ratioP2
70008;SDS011;59542;37.950;-122.338;2023-07-28T00:00:18;19.63;;;5.97;;
70008;SDS011;59542;37.950;-122.338;2023-07-28T00:02:44;19.80;;;5.93;;
70008;SDS011;59542;37.950;-122.338;2023-07-28T00:05:11;18.63;;;5.00;;
70008;SDS011;59542;37.950;-122.338;2023-07-28T00:07:37;20.58;;;5.18;;
70008;SDS011;59542;37.950;-122.338;2023-07-28T00:10:03;15.65;;;4.45;;
70008;SDS011;59542;37.950;-122.338;2023-07-28T00:12:30;16.77;;;5.40;;
70008;SDS011;59542;37.950;-122.338;2023-07-28T00:14:56;16.63;;;5.30;;
70008;SDS011;59542;37.950;-122.338;2023-07-28T00:17:24;18.15;;;5.50;;
70008;SDS011;59542;37.950;-122.338;2023-07-28T00:19:50;15.20;;;5.55;;
70008;SDS011;59542;37.950;-122.338;2023-07-28T00:22:16;20.27;;;5.18;;
70008;SDS011;59542;37.950;-122.338;2023-07-28T00:24:43;17.85;;;5.90;;
70008;SDS011;59542;37.950;-122.338;2023-07-28T00:27:09;16.17;;;5.85;;
70008;SDS011;59542;37.950;-122.338;2023-07-28T00:29:35;18.85;;;5.55;;
70008;SDS011;59542;37.950;-122.338;2023-07-28T00:32:01;18.85;;;5.95;;
70008;SDS011;59542;37.950;-122.338;2023-07-28T00:34:28;18.75;;;6.20;;
70008;SDS011;59542;37.950;-122.338;2023-07-28T00:36:54;18.02;;;5.65;;
70008;SDS011;59542;37.950;-122.338;2023-07-28T00:39:20;19.35;;;6.13;;
70008;SDS011;59542;37.950;-122.338;2023-07-28T00:41:47;20.92;;;6.07;;
70008;SDS011;59542;37.950;-122.338;2023-07-28T00:44:13;17.05;;;5.20;;
70008;SDS011;59542;37.950;-122.338;2023-07-28T00:46:41;15.55;;;5.72;;
70008;SDS011;59542;37.950;-122.338;2023-07-28T00:49:08;15.20;;;4.93;;
70008;SDS011;59542;37.950;-122.338;2023-07-28T00:51:35;17.42;;;5.95;;
70008;SDS011;59542;37.950;-122.338;2023-07-28T00:54:03;19.65;;;5.10;;
70008;SDS011;59542;37.950;-122.338;2023-07-28T00:56:30;18.23;;;5.57;;
70008;SDS011;59542;37.950;-122.338;2023-07-28T00:58:57;19.52;;;6.93;;
70008;SDS011;59542;37.950;-122.338;2023-07-28T01:01:23;90.55;;;11.48;;
70008;SDS011;59542;37.950;-122.338;2023-07-28T01:03:50;19.50;;;5.60;;
70008;SDS011;59542;37.950;-122.338;2023-07-28T01:09:06;18.27;;;5.07;;
70008;SDS011;59542;37.950;-122.338;2023-07-28T01:11:36;18.77;;;5.07;;
70008;SDS011;59542;37.950;-122.338;2023-07-28T01:14:03;18.23;;;5.20;;
70008;SDS011;59542;37.950;-122.338;2023-07-28T01:16:29;16.65;;;5.25;;
70008;SDS011;59542;37.950;-122.338;2023-07-28T01:18:55;18.60;;;5.70;;
70008;SDS011;59542;37.950;-122.338;2023-07-28T01:21:24;14.98;;;5.82;;
70008;SDS011;59542;37.950;-122.338;2023-07-28T01:27:02;22.65;;;5.15;;
70008;SDS011;59542;37.950;-122.338;2023-07-28T01:29:29;18.95;;;5.25;;
70008;SDS011;59542;37.950;-122.338;2023-07-28T01:31:58;19.80;;;5.68;;
70008;SDS011;59542;37.950;-122.338;2023-07-28T01:34:25;15.98;;;5.32;;
70008;SDS011;59542;37.950;-122.338;2023-07-28T01:36:51;14.75;;;5.25;;
70008;SDS011;59542;37.950;-122.338;2023-07-28T01:39:18;16.52;;;5.05;;
70008;SDS011;59542;37.950;-122.338;2023-07-28T01:41:44;17.63;;;5.78;;
70008;SDS011;59542;37.950;-122.338;2023-07-28T01:44:10;12.90;;;5.65;;
70008;SDS011;59542;37.950;-122.338;2023-07-28T01:46:37;18.00;;;5.65;;
70008;SDS011;59542;37.950;-122.338;2023-07-28T01:49:04;14.45;;;5.32;;
70008;SDS011;59542;37.950;-122.338;2023-07-28T01:51:31;19.85;;;5.43;;
70008;SDS011;59542;37.950;-122.338;2023-07-28T01:54:00;14.52;;;4.85;;
70008;SDS011;59542;37.950;-122.338;2023-07-28T01:56:26;17.73;;;5.05;;
70008;SDS011;59542;37.950;-122.338;2023-07-28T01:58:53;16.70;;;6.22;;
70008;SDS011;59542;37.950;-122.338;2023-07-28T02:01:19;16.83;;;6.10;;
70008;SDS011;59542;37.950;-122.338;2023-07-28T02:03:46;21.17;;;5.53;;
70008;SDS011;59542;37.950;-122.338;2023-07-28T02:06:12;15.50;;;5.68;;
70008;SDS011;59542;37.950;-122.338;2023-07-28T02:08:38;19.45;;;5.78;;
70008;SDS011;59542;37.950;-122.338;2023-07-28T02:11:05;17.83;;;5.57;;
70008;SDS011;59542;37.950;-122.338;2023-07-28T02:13:31;21.55;;;5.63;;
70008;SDS011;59542;37.950;-122.338;2023-07-28T02:15:57;12.88;;;4.35;;
70008;SDS011;59542;37.950;-122.338;2023-07-28T02:18:23;21.08;;;5.78;;
70008;SDS011;59542;37.950;-122.338;2023-07-28T02:20:50;17.50;;;4.78;;
70008;SDS011;59542;37.950;-122.338;2023-07-28T02:23:16;17.17;;;5.75;;
70008;SDS011;59542;37.950;-122.338;2023-07-28T02:25:42;17.60;;;5.18;;
70008;SDS011;59542;37.950;-122.338;2023-07-28T02:28:09;21.25;;;5.80;;
70008;SDS011;59542;37.950;-122.338;2023-07-28T02:30:37;20.55;;;5.75;;
70008;SDS011;59542;37.950;-122.338;2023-07-28T02:33:03;16.75;;;5.68;;
70008;SDS011;59542;37.950;-122.338;2023-07-28T02:35:30;13.77;;;5.47;;
70008;SDS011;59542;37.950;-122.338;2023-07-28T02:37:57;18.20;;;5.93;;
70008;SDS011;59542;37.950;-122.338;2023-07-28T02:40:23;15.95;;;4.93;;
70008;SDS011;59542;37.950;-122.338;2023-07-28T02:42:50;17.08;;;5.85;;
70008;SDS011;59542;37.950;-122.338;2023-07-28T02:45:18;19.50;;;5.85;;
70008;SDS011;59542;37.950;-122.338;2023-07-28T02:47:45;26.33;;;5.95;;
70008;SDS011;59542;37.950;-122.338;2023-07-28T02:50:11;20.08;;;6.15;;
70008;SDS011;59542;37.950;-122.338;2023-07-28T02:52:37;23.58;;;6.50;;
70008;SDS011;59542;37.950;-122.338;2023-07-28T02:55:04;25.33;;;6.57;;
70008;SDS011;59542;37.950;-122.338;2023-07-28T02:57:30;17.27;;;5.32;;
70008;SDS011;59542;37.950;-122.338;2023-07-28T02:59:56;18.75;;;6.30;;
70008;SDS011;59542;37.950;-122.338;2023-07-28T03:02:23;22.20;;;5.93;;
70008;SDS011;59542;37.950;-122.338;2023-07-28T03:04:49;17.85;;;5.78;;
70008;SDS011;59542;37.950;-122.338;2023-07-28T03:07:16;20.42;;;6.05;;
70008;SDS011;59542;37.950;-122.338;2023-07-28T03:09:42;20.20;;;6.40;;
70008;SDS011;59542;37.950;-122.338;2023-07-28T03:12:09;22.15;;;7.22;;
70008;SDS011;59542;37.950;-122.338;2023-07-28T03:14:35;18.85;;;5.40;;
70008;SDS011;59542;37.950;-122.338;2023-07-28T03:17:02;21.80;;;6.43;;
70008;SDS011;59542;37.950;-122.338;2023-07-28T03:19:28;20.42;;;7.40;;
70008;SDS011;59542;37.950;-122.338;2023-07-28T03:21:54;23.92;;;6.82;;
70008;SDS011;59542;37.950;-122.338;2023-07-28T03:24:20;22.70;;;6.45;;
70008;SDS011;59542;37.950;-122.338;2023-07-28T03:26:47;16.15;;;6.15;;
70008;SDS011;59542;37.950;-122.338;2023-07-28T03:29:13;22.27;;;7.28;;
70008;SDS011;59542;37.950;-122.338;2023-07-28T03:31:39;18.58;;;6.32;;
70008;SDS011;59542;37.950;-122.338;2023-07-28T03:34:05;19.25;;;7.38;;
70008;SDS011;59542;37.950;-122.338;2023-07-28T03:36:32;17.48;;;6.57;;
70008;SDS011;59542;37.950;-122.338;2023-07-28T03:38:58;24.55;;;7.60;;
70008;SDS011;59542;37.950;-122.338;2023-07-28T03:41:24;19.20;;;6.50;;
70008;SDS011;59542;37.950;-122.338;2023-07-28T03:43:50;24.52;;;6.55;;
70008;SDS011;59542;37.950;-122.338;2023-07-28T03:46:17;21.30;;;7.10;;
70008;SDS011;59542;37.950;-122.338;2023-07-28T03:48:43;19.60;;;6.50;;
70008;SDS011;59542;37.950;-122.338;2023-07-28T03:51:09;20.75;;;6.78;;
70008;SDS011;59542;37.950;-122.338;2023-07-28T03:53:35;22.92;;;6.78;;
70008;SDS011;59542;37.950;-122.338;2023-07-28T03:56:02;19.25;;;6.47;;
70008;SDS011;59542;37.950;-122.338;2023-07-28T03:58:29;21.17;;;7.28;;
70008;SDS011;59542;37.950;-122.338;2023-07-28T04:00:55;22.90;;;7.40;;
70008;SDS011;59542;37.950;-122.338;2023-07-28T04:03:21;15.70;;;6.35;;
70008;SDS011;59542;37.950;-122.338;2023-07-28T04:05:47;26.63;;;7.30;;
70008;SDS011;59542;37.950;-122.338;2023-07-28T04:08:14;22.40;;;7.55;;
70008;SDS011;59542;37.950;-122.338;2023-07-28T04:10:40;16.92;;;7.20;;
70008;SDS011;59542;37.950;-122.338;2023-07-28T04:13:06;19.90;;;7.35;;
70008;SDS011;59542;37.950;-122.338;2023-07-28T04:15:33;21.90;;;6.68;;
70008;SDS011;59542;37.950;-122.338;2023-07-28T04:17:59;20.35;;;6.38;;
70008;SDS011;59542;37.950;-122.338;2023-07-28T04:20:26;19.00;;;6.93;;
70008;SDS011;59542;37.950;-122.338;2023-07-28T04:22:52;23.77;;;7.63;;
70008;SDS011;59542;37.950;-122.338;2023-07-28T04:25:18;24.95;;;6.72;;
70008;SDS011;59542;37.950;-122.338;2023-07-28T04:27:44;27.67;;;8.00;;
70008;SDS011;59542;37.950;-122.338;2023-07-28T04:30:11;17.67;;;6.35;;
70008;SDS011;59542;37.950;-122.338;2023-07-28T04:32:37;22.73;;;7.63;;
70008;SDS011;59542;37.950;-122.338;2023-07-28T04:35:04;19.70;;;6.93;;
70008;SDS011;59542;37.950;-122.338;2023-07-28T04:37:31;21.15;;;7.15;;
70008;SDS011;59542;37.950;-122.338;2023-07-28T04:39:57;20.98;;;7.40;;
70008;SDS011;59542;37.950;-122.338;2023-07-28T04:42:24;25.35;;;7.63;;
70008;SDS011;59542;37.950;-122.338;2023-07-28T04:44:50;24.40;;;7.47;;
70008;SDS011;59542;37.950;-122.338;2023-07-28T04:47:16;19.13;;;7.70;;
70008;SDS011;59542;37.950;-122.338;2023-07-28T04:49:42;21.33;;;6.97;;
70008;SDS011;59542;37.950;-122.338;2023-07-28T04:52:09;22.83;;;7.30;;
70008;SDS011;59542;37.950;-122.338;2023-07-28T04:54:35;19.50;;;7.68;;
70008;SDS011;59542;37.950;-122.338;2023-07-28T04:57:01;23.80;;;7.32;;
70008;SDS011;59542;37.950;-122.338;2023-07-28T04:59:28;30.13;;;8.90;;
70008;SDS011;59542;37.950;-122.338;2023-07-28T05:01:54;25.55;;;8.02;;
70008;SDS011;59542;37.950;-122.338;2023-07-28T05:04:20;25.10;;;7.68;;
70008;SDS011;59542;37.950;-122.338;2023-07-28T05:06:46;23.77;;;7.72;;
70008;SDS011;59542;37.950;-122.338;2023-07-28T05:09:12;27.02;;;7.70;;
70008;SDS011;59542;37.950;-122.338;2023-07-28T05:11:39;26.70;;;7.25;;
70008;SDS011;59542;37.950;-122.338;2023-07-28T05:14:05;24.98;;;7.20;;
70008;SDS011;59542;37.950;-122.338;2023-07-28T05:16:34;28.55;;;8.43;;
70008;SDS011;59542;37.950;-122.338;2023-07-28T05:19:00;21.85;;;7.28;;
70008;SDS011;59542;37.950;-122.338;2023-07-28T05:21:27;22.60;;;7.47;;
70008;SDS011;59542;37.950;-122.338;2023-07-28T05:23:54;23.80;;;7.43;;
70008;SDS011;59542;37.950;-122.338;2023-07-28T05:26:20;17.30;;;7.13;;
70008;SDS011;59542;37.950;-122.338;2023-07-28T05:28:46;25.13;;;8.00;;
70008;SDS011;59542;37.950;-122.338;2023-07-28T05:31:12;39.38;;;9.25;;
70008;SDS011;59542;37.950;-122.338;2023-07-28T05:33:40;18.85;;;6.90;;
70008;SDS011;59542;37.950;-122.338;2023-07-28T05:36:06;26.02;;;7.07;;
70008;SDS011;59542;37.950;-122.338;2023-07-28T05:38:33;24.15;;;8.30;;
70008;SDS011;59542;37.950;-122.338;2023-07-28T05:41:00;21.92;;;8.18;;
70008;SDS011;59542;37.950;-122.338;2023-07-28T05:43:32;25.90;;;6.55;;
70008;SDS011;59542;37.950;-122.338;2023-07-28T05:45:59;20.38;;;7.53;;
70008;SDS011;59542;37.950;-122.338;2023-07-28T05:48:26;24.92;;;7.75;;
70008;SDS011;59542;37.950;-122.338;2023-07-28T05:50:52;20.25;;;6.78;;
70008;SDS011;59542;37.950;-122.338;2023-07-28T05:53:22;29.05;;;8.45;;
70008;SDS011;59542;37.950;-122.338;2023-07-28T05:55:48;21.45;;;7.47;;
70008;SDS011;59542;37.950;-122.338;2023-07-28T05:58:14;24.38;;;7.57;;
70008;SDS011;59542;37.950;-122.338;2023-07-28T06:00:41;20.23;;;6.20;;
70008;SDS011;59542;37.950;-122.338;2023-07-28T06:03:09;24.05;;;7.63;;
70008;SDS011;59542;37.950;-122.338;2023-07-28T06:05:40;28.75;;;7.85;;
70008;SDS011;59542;37.950;-122.338;2023-07-28T06:08:07;25.88;;;7.97;;
70008;SDS011;59542;37.950;-122.338;2023-07-28T06:10:34;23.63;;;7.13;;
70008;SDS011;59542;37.950;-122.338;2023-07-28T06:13:00;23.80;;;6.90;;
70008;SDS011;59542;37.950;-122.338;2023-07-28T06:15:27;24.50;;;8.02;;
70008;SDS011;59542;37.950;-122.338;2023-07-28T06:17:53;21.58;;;7.72;;
70008;SDS011;59542;37.950;-122.338;2023-07-28T06:20:19;24.90;;;7.97;;
70008;SDS011;59542;37.950;-122.338;2023-07-28T06:22:45;23.90;;;7.53;;
70008;SDS011;59542;37.950;-122.338;2023-07-28T06:25:11;26.83;;;8.32;;
70008;SDS011;59542;37.950;-122.338;2023-07-28T06:27:38;19.67;;;7.13;;
70008;SDS011;59542;37.950;-122.338;2023-07-28T06:30:04;21.63;;;7.75;;
70008;SDS011;59542;37.950;-122.338;2023-07-28T06:32:31;18.95;;;7.45;;
70008;SDS011;59542;37.950;-122.338;2023-07-28T06:34:57;23.73;;;7.97;;
70008;SDS011;59542;37.950;-122.338;2023-07-28T06:37:24;28.25;;;7.72;;
70008;SDS011;59542;37.950;-122.338;2023-07-28T06:39:50;26.75;;;8.27;;
70008;SDS011;59542;37.950;-122.338;2023-07-28T06:42:16;31.33;;;8.45;;
70008;SDS011;59542;37.950;-122.338;2023-07-28T06:44:49;22.73;;;7.35;;
70008;SDS011;59542;37.950;-122.338;2023-07-28T06:47:16;21.40;;;7.70;;
70008;SDS011;59542;37.950;-122.338;2023-07-28T06:49:43;28.45;;;7.65;;
70008;SDS011;59542;37.950;-122.338;2023-07-28T06:52:10;24.13;;;8.00;;
70008;SDS011;59542;37.950;-122.338;2023-07-28T06:54:36;24.83;;;8.00;;
70008;SDS011;59542;37.950;-122.338;2023-07-28T06:57:02;25.75;;;7.05;;
70008;SDS011;59542;37.950;-122.338;2023-07-28T06:59:29;22.30;;;7.47;;
70008;SDS011;59542;37.950;-122.338;2023-07-28T07:01:56;26.60;;;8.63;;
70008;SDS011;59542;37.950;-122.338;2023-07-28T07:04:22;22.10;;;8.10;;
70008;SDS011;59542;37.950;-122.338;2023-07-28T07:06:48;25.45;;;7.60;;
70008;SDS011;59542;37.950;-122.338;2023-07-28T07:09:14;22.30;;;7.90;;
70008;SDS011;59542;37.950;-122.338;2023-07-28T07:11:41;30.77;;;8.18;;
70008;SDS011;59542;37.950;-122.338;2023-07-28T07:14:07;34.67;;;8.95;;
70008;SDS011;59542;37.950;-122.338;2023-07-28T07:16:34;20.17;;;7.78;;
70008;SDS011;59542;37.950;-122.338;2023-07-28T07:19:00;26.15;;;8.55;;
70008;SDS011;59542;37.950;-122.338;2023-07-28T07:21:29;26.20;;;7.68;;
70008;SDS011;59542;37.950;-122.338;2023-07-28T07:23:56;22.08;;;7.70;;
70008;SDS011;59542;37.950;-122.338;2023-07-28T07:26:22;27.90;;;7.75;;
70008;SDS011;59542;37.950;-122.338;2023-07-28T07:28:48;28.00;;;7.65;;
70008;SDS011;59542;37.950;-122.338;2023-07-28T07:31:14;25.42;;;8.18;;
70008;SDS011;59542;37.950;-122.338;2023-07-28T07:33:41;27.02;;;8.45;;
70008;SDS011;59542;37.950;-122.338;2023-07-28T07:36:17;23.77;;;7.57;;
70008;SDS011;59542;37.950;-122.338;2023-07-28T07:38:44;22.17;;;7.47;;
70008;SDS011;59542;37.950;-122.338;2023-07-28T07:41:11;25.80;;;8.48;;
70008;SDS011;59542;37.950;-122.338;2023-07-28T07:43:41;21.02;;;7.53;;
70008;SDS011;59542;37.950;-122.338;2023-07-28T07:46:07;24.65;;;8.18;;
70008;SDS011;59542;37.950;-122.338;2023-07-28T07:48:34;21.05;;;7.63;;
70008;SDS011;59542;37.950;-122.338;2023-07-28T07:51:00;19.77;;;7.75;;
70008;SDS011;59542;37.950;-122.338;2023-07-28T07:53:26;29.90;;;8.15;;
70008;SDS011;59542;37.950;-122.338;2023-07-28T07:55:53;27.42;;;8.65;;
70008;SDS011;59542;37.950;-122.338;2023-07-28T07:58:19;26.98;;;7.85;;
70008;SDS011;59542;37.950;-122.338;2023-07-28T08:00:45;35.20;;;9.32;;
70008;SDS011;59542;37.950;-122.338;2023-07-28T08:03:11;23.88;;;8.27;;
70008;SDS011;59542;37.950;-122.338;2023-07-28T08:05:38;20.60;;;7.95;;
70008;SDS011;59542;37.950;-122.338;2023-07-28T08:08:04;29.30;;;8.38;;
70008;SDS011;59542;37.950;-122.338;2023-07-28T08:10:32;26.83;;;8.48;;
70008;SDS011;59542;37.950;-122.338;2023-07-28T08:12:59;23.00;;;8.43;;
70008;SDS011;59542;37.950;-122.338;2023-07-28T08:15:26;22.33;;;7.47;;
70008;SDS011;59542;37.950;-122.338;2023-07-28T08:17:52;26.33;;;8.43;;
70008;SDS011;59542;37.950;-122.338;2023-07-28T08:20:18;26.88;;;7.70;;
70008;SDS011;59542;37.950;-122.338;2023-07-28T08:22:45;24.95;;;7.93;;
70008;SDS011;59542;37.950;-122.338;2023-07-28T08:25:11;22.17;;;8.25;;
70008;SDS011;59542;37.950;-122.338;2023-07-28T08:27:38;20.90;;;8.13;;
70008;SDS011;59542;37.950;-122.338;2023-07-28T08:30:04;24.85;;;8.18;;
70008;SDS011;59542;37.950;-122.338;2023-07-28T08:32:31;20.40;;;8.45;;
70008;SDS011;59542;37.950;-122.338;2023-07-28T08:34:57;25.48;;;8.18;;
70008;SDS011;59542;37.950;-122.338;2023-07-28T08:37:24;24.88;;;7.15;;
70008;SDS011;59542;37.950;-122.338;2023-07-28T08:39:50;20.15;;;8.23;;
70008;SDS011;59542;37.950;-122.338;2023-07-28T08:42:16;28.95;;;9.13;;
70008;SDS011;59542;37.950;-122.338;2023-07-28T08:44:42;27.88;;;7.93;;
70008;SDS011;59542;37.950;-122.338;2023-07-28T08:47:11;29.10;;;8.93;;
70008;SDS011;59542;37.950;-122.338;2023-07-28T08:49:37;22.88;;;8.35;;
70008;SDS011;59542;37.950;-122.338;2023-07-28T08:52:04;29.63;;;7.43;;
70008;SDS011;59542;37.950;-122.338;2023-07-28T08:54:30;35.63;;;8.60;;
70008;SDS011;59542;37.950;-122.338;2023-07-28T08:56:57;18.77;;;8.05;;
70008;SDS011;59542;37.950;-122.338;2023-07-28T08:59:24;21.63;;;8.73;;
70008;SDS011;59542;37.950;-122.338;2023-07-28T09:01:53;28.08;;;8.25;;
70008;SDS011;59542;37.950;-122.338;2023-07-28T09:04:21;22.27;;;7.80;;
70008;SDS011;59542;37.950;-122.338;2023-07-28T09:06:48;27.77;;;7.95;;
70008;SDS011;59542;37.950;-122.338;2023-07-28T09:09:15;26.73;;;8.05;;
70008;SDS011;59542;37.950;-122.338;2023-07-28T09:11:44;32.03;;;8.77;;
70008;SDS011;59542;37.950;-122.338;2023-07-28T09:14:12;20.95;;;8.48;;
70008;SDS011;59542;37.950;-122.338;2023-07-28T09:16:39;26.00;;;8.88;;
70008;SDS011;59542;37.950;-122.338;2023-07-28T09:19:05;24.30;;;8.43;;
70008;SDS011;59542;37.950;-122.338;2023-07-28T09:21:32;25.05;;;8.40;;
70008;SDS011;59542;37.950;-122.338;2023-07-28T09:23:59;29.63;;;8.35;;
70008;SDS011;59542;37.950;-122.338;2023-07-28T09:26:37;31.70;;;9.68;;
70008;SDS011;59542;37.950;-122.338;2023-07-28T09:29:11;26.33;;;8.57;;
70008;SDS011;59542;37.950;-122.338;2023-07-28T09:31:45;35.67;;;9.73;;
70008;SDS011;59542;37.950;-122.338;2023-07-28T09:34:13;29.92;;;9.65;;
70008;SDS011;59542;37.950;-122.338;2023-07-28T09:36:59;25.10;;;8.60;;
70008;SDS011;59542;37.950;-122.338;2023-07-28T09:39:26;35.83;;;9.95;;
70008;SDS011;59542;37.950;-122.338;2023-07-28T09:41:53;20.58;;;8.27;;
70008;SDS011;59542;37.950;-122.338;2023-07-28T09:44:23;28.80;;;9.18;;
70008;SDS011;59542;37.950;-122.338;2023-07-28T09:46:56;19.13;;;7.82;;
70008;SDS011;59542;37.950;-122.338;2023-07-28T09:49:34;24.40;;;8.70;;
70008;SDS011;59542;37.950;-122.338;2023-07-28T09:52:08;35.05;;;9.13;;
70008;SDS011;59542;37.950;-122.338;2023-07-28T09:54:41;28.95;;;8.85;;
70008;SDS011;59542;37.950;-122.338;2023-07-28T09:57:13;30.45;;;8.75;;
70008;SDS011;59542;37.950;-122.338;2023-07-28T09:59:45;18.55;;;7.95;;
70008;SDS011;59542;37.950;-122.338;2023-07-28T10:02:13;24.33;;;9.05;;
70008;SDS011;59542;37.950;-122.338;2023-07-28T10:04:40;26.25;;;8.60;;
70008;SDS011;59542;37.950;-122.338;2023-07-28T10:07:07;23.60;;;7.35;;
70008;SDS011;59542;37.950;-122.338;2023-07-28T10:09:34;20.02;;;7.68;;
70008;SDS011;59542;37.950;-122.338;2023-07-28T10:12:02;26.88;;;8.60;;
70008;SDS011;59542;37.950;-122.338;2023-07-28T10:14:30;25.23;;;9.05;;
70008;SDS011;59542;37.950;-122.338;2023-07-28T10:17:03;22.42;;;7.88;;
70008;SDS011;59542;37.950;-122.338;2023-07-28T10:19:34;23.85;;;7.88;;
70008;SDS011;59542;37.950;-122.338;2023-07-28T10:22:11;24.58;;;8.50;;
70008;SDS011;59542;37.950;-122.338;2023-07-28T10:24:50;22.25;;;7.45;;
70008;SDS011;59542;37.950;-122.338;2023-07-28T10:30:10;29.60;;;8.30;;
70008;SDS011;59542;37.950;-122.338;2023-07-28T10:32:40;25.98;;;7.93;;
70008;SDS011;59542;37.950;-122.338;2023-07-28T10:37:45;25.05;;;7.97;;
70008;SDS011;59542;37.950;-122.338;2023-07-28T10:40:30;18.48;;;7.75;;
70008;SDS011;59542;37.950;-122.338;2023-07-28T10:43:01;22.90;;;8.15;;
70008;SDS011;59542;37.950;-122.338;2023-07-28T10:45:31;35.80;;;8.40;;
70008;SDS011;59542;37.950;-122.338;2023-07-28T10:47:58;25.02;;;7.45;;
70008;SDS011;59542;37.950;-122.338;2023-07-28T10:50:29;25.50;;;7.25;;
70008;SDS011;59542;37.950;-122.338;2023-07-28T10:52:56;21.55;;;7.18;;
70008;SDS011;59542;37.950;-122.338;2023-07-28T10:55:24;28.17;;;8.82;;
70008;SDS011;59542;37.950;-122.338;2023-07-28T10:57:52;32.58;;;8.77;;
70008;SDS011;59542;37.950;-122.338;2023-07-28T11:00:20;21.25;;;8.30;;
70008;SDS011;59542;37.950;-122.338;2023-07-28T11:02:48;21.10;;;8.30;;
70008;SDS011;59542;37.950;-122.338;2023-07-28T11:05:23;29.48;;;9.30;;
70008;SDS011;59542;37.950;-122.338;2023-07-28T11:07:57;31.67;;;8.65;;
70008;SDS011;59542;37.950;-122.338;2023-07-28T11:10:25;27.10;;;7.72;;
70008;SDS011;59542;37.950;-122.338;2023-07-28T11:12:56;30.88;;;8.68;;
70008;SDS011;59542;37.950;-122.338;2023-07-28T11:15:24;30.45;;;8.38;;
70008;SDS011;59542;37.950;-122.338;2023-07-28T11:17:51;20.65;;;7.13;;
70008;SDS011;59542;37.950;-122.338;2023-07-28T11:20:19;29.00;;;8.70;;
70008;SDS011;59542;37.950;-122.338;2023-07-28T11:22:56;22.88;;;8.93;;
70008;SDS011;59542;37.950;-122.338;2023-07-28T11:25:24;30.15;;;8.45;;
70008;SDS011;59542;37.950;-122.338;2023-07-28T11:27:52;29.52;;;8.65;;
70008;SDS011;59542;37.950;-122.338;2023-07-28T11:30:19;27.88;;;8.95;;
70008;SDS011;59542;37.950;-122.338;2023-07-28T11:32:48;22.63;;;7.22;;
70008;SDS011;59542;37.950;-122.338;2023-07-28T11:35:16;26.17;;;8.32;;
70008;SDS011;59542;37.950;-122.338;2023-07-28T11:37:45;24.33;;;7.50;;
70008;SDS011;59542;37.950;-122.338;2023-07-28T11:40:15;25.40;;;7.40;;
70008;SDS011;59542;37.950;-122.338;2023-07-28T11:42:55;31.10;;;8.32;;
70008;SDS011;59542;37.950;-122.338;2023-07-28T11:45:22;21.23;;;6.80;;
70008;SDS011;59542;37.950;-122.338;2023-07-28T11:50:28;23.73;;;7.45;;
70008;SDS011;59542;37.950;-122.338;2023-07-28T11:52:56;17.92;;;7.10;;
70008;SDS011;59542;37.950;-122.338;2023-07-28T11:55:23;24.95;;;7.75;;
70008;SDS011;59542;37.950;-122.338;2023-07-28T11:57:52;25.83;;;8.15;;
70008;SDS011;59542;37.950;-122.338;2023-07-28T12:00:24;25.98;;;8.40;;
70008;SDS011;59542;37.950;-122.338;2023-07-28T12:03:01;21.10;;;8.20;;
70008;SDS011;59542;37.950;-122.338;2023-07-28T12:05:29;24.52;;;8.43;;
70008;SDS011;59542;37.950;-122.338;2023-07-28T12:07:55;19.63;;;7.82;;
70008;SDS011;59542;37.950;-122.338;2023-07-28T12:10:22;27.13;;;9.13;;
70008;SDS011;59542;37.950;-122.338;2023-07-28T12:12:49;22.13;;;8.65;;
70008;SDS011;59542;37.950;-122.338;2023-07-28T12:15:28;26.60;;;9.02;;
70008;SDS011;59542;37.950;-122.338;2023-07-28T12:18:12;23.17;;;7.75;;
70008;SDS011;59542;37.950;-122.338;2023-07-28T12:20:41;20.83;;;8.13;;
70008;SDS011;59542;37.950;-122.338;2023-07-28T12:23:12;28.02;;;8.00;;
70008;SDS011;59542;37.950;-122.338;2023-07-28T12:25:43;24.77;;;8.38;;
70008;SDS011;59542;37.950;-122.338;2023-07-28T12:28:10;28.30;;;8.23;;
70008;SDS011;59542;37.950;-122.338;2023-07-28T12:30:37;28.35;;;8.35;;
70008;SDS011;59542;37.950;-122.338;2023-07-28T12:33:04;23.77;;;8.60;;
70008;SDS011;59542;37.950;-122.338;2023-07-28T12:35:31;30.88;;;8.80;;
70008;SDS011;59542;37.950;-122.338;2023-07-28T12:38:00;23.88;;;9.00;;
70008;SDS011;59542;37.950;-122.338;2023-07-28T12:40:30;21.77;;;8.38;;
70008;SDS011;59542;37.950;-122.338;2023-07-28T12:42:58;23.73;;;8.52;;
70008;SDS011;59542;37.950;-122.338;2023-07-28T12:45:26;26.05;;;7.60;;
70008;SDS011;59542;37.950;-122.338;2023-07-28T12:47:53;25.73;;;7.07;;
70008;SDS011;59542;37.950;-122.338;2023-07-28T12:50:22;16.60;;;7.20;;
70008;SDS011;59542;37.950;-122.338;2023-07-28T12:52:49;21.33;;;6.63;;
70008;SDS011;59542;37.950;-122.338;2023-07-28T12:55:17;22.27;;;7.28;;
70008;SDS011;59542;37.950;-122.338;2023-07-28T12:57:44;24.75;;;7.80;;
70008;SDS011;59542;37.950;-122.338;2023-07-28T13:00:13;24.75;;;7.68;;
70008;SDS011;59542;37.950;-122.338;2023-07-28T13:02:44;25.45;;;7.45;;
70008;SDS011;59542;37.950;-122.338;2023-07-28T13:05:11;19.48;;;7.30;;
70008;SDS011;59542;37.950;-122.338;2023-07-28T13:07:39;21.85;;;7.82;;
70008;SDS011;59542;37.950;-122.338;2023-07-28T13:10:06;22.50;;;7.85;;
70008;SDS011;59542;37.950;-122.338;2023-07-28T13:12:37;17.00;;;6.28;;
70008;SDS011;59542;37.950;-122.338;2023-07-28T13:15:04;21.30;;;7.13;;
70008;SDS011;59542;37.950;-122.338;2023-07-28T13:17:31;14.20;;;6.88;;
70008;SDS011;59542;37.950;-122.338;2023-07-28T13:19:57;22.38;;;7.20;;
70008;SDS011;59542;37.950;-122.338;2023-07-28T13:22:24;19.88;;;7.88;;
70008;SDS011;59542;37.950;-122.338;2023-07-28T13:24:52;16.02;;;6.85;;
70008;SDS011;59542;37.950;-122.338;2023-07-28T13:27:19;18.15;;;7.47;;
70008;SDS011;59542;37.950;-122.338;2023-07-28T13:29:45;18.73;;;6.72;;
70008;SDS011;59542;37.950;-122.338;2023-07-28T13:32:19;13.90;;;6.07;;
70008;SDS011;59542;37.950;-122.338;2023-07-28T13:34:49;19.35;;;7.07;;
70008;SDS011;59542;37.950;-122.338;2023-07-28T13:37:15;20.77;;;7.65;;
70008;SDS011;59542;37.950;-122.338;2023-07-28T13:39:42;23.70;;;8.38;;
70008;SDS011;59542;37.950;-122.338;2023-07-28T13:42:08;19.20;;;6.50;;
70008;SDS011;59542;37.950;-122.338;2023-07-28T13:44:37;24.45;;;7.60;;
70008;SDS011;59542;37.950;-122.338;2023-07-28T13:47:04;15.32;;;6.65;;
70008;SDS011;59542;37.950;-122.338;2023-07-28T13:49:31;20.60;;;7.35;;
70008;SDS011;59542;37.950;-122.338;2023-07-28T13:52:01;19.33;;;7.68;;
70008;SDS011;59542;37.950;-122.338;2023-07-28T13:54:28;17.77;;;6.55;;
70008;SDS011;59542;37.950;-122.338;2023-07-28T13:56:54;17.10;;;7.43;;
70008;SDS011;59542;37.950;-122.338;2023-07-28T13:59:21;21.23;;;7.82;;
70008;SDS011;59542;37.950;-122.338;2023-07-28T14:01:48;21.42;;;6.80;;
70008;SDS011;59542;37.950;-122.338;2023-07-28T14:04:15;20.67;;;7.20;;
70008;SDS011;59542;37.950;-122.338;2023-07-28T14:06:41;19.73;;;6.82;;
70008;SDS011;59542;37.950;-122.338;2023-07-28T14:09:08;13.95;;;6.90;;
70008;SDS011;59542;37.950;-122.338;2023-07-28T14:11:35;17.73;;;5.75;;